createdAt,value
2023-04-16T00:01:15.578Z,96554.56
2023-04-16T00:06:36.503Z,96556.66
2023-04-16T00:11:57.479Z,96562.44
2023-04-16T00:17:18.281Z,96557.59
2023-04-16T00:22:39.633Z,96556.91
2023-04-16T00:28:00.438Z,96551.66
2023-04-16T00:33:21.587Z,96550.94
2023-04-16T00:38:42.157Z,96555.66
2023-04-16T00:44:02.888Z,96554.31
2023-04-16T00:49:24.629Z,96551.13
2023-04-16T00:54:46.086Z,96562.19
2023-04-16T01:00:08.653Z,96549.88
2023-04-16T01:05:30.298Z,96547.38
2023-04-16T01:10:50.985Z,96554.47
2023-04-16T01:16:12.941Z,96560.59
2023-04-16T01:21:33.946Z,96559.06
2023-04-16T01:26:54.497Z,96563.75
2023-04-16T01:32:15.594Z,96574.69
2023-04-16T01:37:37.629Z,96571.53
2023-04-16T01:42:58.283Z,96577.06
2023-04-16T01:48:19.102Z,96575.63
2023-04-16T01:53:39.920Z,96577.78
2023-04-16T01:59:00.712Z,96576.72
2023-04-16T02:04:27.566Z,96585.31
2023-04-16T02:09:50.239Z,96586.00
2023-04-16T02:15:11.751Z,96575.66
2023-04-16T02:20:32.735Z,96583.63
2023-04-16T02:25:54.463Z,96591.25
2023-04-16T02:31:18.047Z,96587.22
2023-04-16T02:36:39.173Z,96586.41
2023-04-16T02:42:01.562Z,96590.66
2023-04-16T02:47:22.252Z,96597.59
2023-04-16T02:52:43.471Z,96594.78
2023-04-16T02:58:04.120Z,96590.97
2023-04-16T03:03:24.825Z,96604.50
2023-04-16T03:08:45.462Z,96596.94
2023-04-16T03:14:06.229Z,96602.00
2023-04-16T03:19:26.935Z,96600.59
2023-04-16T03:24:47.570Z,96614.25
2023-04-16T03:30:11.039Z,96619.66
2023-04-16T03:35:31.874Z,96621.88
2023-04-16T03:40:52.494Z,96617.34
2023-04-16T03:46:13.658Z,96622.09
2023-04-16T03:51:34.326Z,96633.53
2023-04-16T03:56:55.086Z,96640.16
2023-04-16T04:02:16.303Z,96650.97
2023-04-16T04:07:37.610Z,96655.13
2023-04-16T04:12:58.832Z,96665.84
2023-04-16T04:18:19.833Z,96677.84
2023-04-16T04:23:41.696Z,96676.06
2023-04-16T04:29:02.556Z,96686.78
2023-04-16T04:34:24.456Z,96686.28
2023-04-16T04:39:45.185Z,96688.44
2023-04-16T04:45:07.678Z,96693.53
2023-04-16T04:50:29.488Z,96698.59
2023-04-16T04:55:54.185Z,96708.22
2023-04-16T05:01:18.828Z,96712.59
2023-04-16T05:06:39.511Z,96722.16
2023-04-16T05:12:00.285Z,96727.69
2023-04-16T05:17:20.995Z,96742.31
2023-04-16T05:22:41.738Z,96753.00
2023-04-16T05:28:02.621Z,96748.75
2023-04-16T05:33:23.322Z,96758.19
2023-04-16T05:38:44.050Z,96765.97
2023-04-16T05:44:04.949Z,96762.06
2023-04-16T05:49:26.012Z,96769.03
2023-04-16T05:54:46.601Z,96773.25
2023-04-16T06:00:08.144Z,96781.03
2023-04-16T06:05:35.056Z,96773.34
2023-04-16T06:10:56.626Z,96771.50
2023-04-16T06:16:17.415Z,96775.28
2023-04-16T06:21:38.334Z,96779.66
2023-04-16T06:26:59.444Z,96784.38
2023-04-16T06:32:20.258Z,96784.84
2023-04-16T06:37:41.452Z,96779.31
2023-04-16T06:43:02.090Z,96779.91
2023-04-16T06:48:22.744Z,96790.50
2023-04-16T06:53:43.543Z,96797.81
2023-04-16T06:59:04.933Z,96795.94
2023-04-16T07:04:26.180Z,96805.25
2023-04-16T07:09:47.239Z,96808.41
2023-04-16T07:15:08.785Z,96805.22
2023-04-16T07:20:29.426Z,96811.09
2023-04-16T07:25:50.498Z,96816.84
2023-04-16T07:31:11.499Z,96823.72
2023-04-16T07:36:32.343Z,96827.50
2023-04-16T07:41:53.297Z,96827.84
2023-04-16T07:47:14.185Z,96830.06
2023-04-16T07:52:35.059Z,96834.69
2023-04-16T07:57:55.755Z,96844.88
2023-04-16T08:03:16.751Z,96839.09
2023-04-16T08:08:37.849Z,96841.63
2023-04-16T08:13:58.793Z,96846.91
2023-04-16T08:19:19.636Z,96859.25
2023-04-16T08:24:40.434Z,96845.66
2023-04-16T08:30:01.196Z,96844.94
2023-04-16T08:35:21.868Z,96861.59
2023-04-16T08:40:43.601Z,96862.69
2023-04-16T08:46:05.907Z,96869.91
2023-04-16T08:51:34.056Z,96874.34
2023-04-16T08:56:56.054Z,96876.81
2023-04-16T09:02:17.313Z,96886.91
2023-04-16T09:07:38.956Z,96879.03
2023-04-16T09:12:59.927Z,96884.56
2023-04-16T09:18:21.347Z,96891.34
2023-04-16T09:23:42.391Z,96891.72
2023-04-16T09:29:03.347Z,96898.34
2023-04-16T09:34:24.351Z,96891.91
2023-04-16T09:39:53.080Z,96888.06
2023-04-16T09:45:14.019Z,96895.25
2023-04-16T09:50:34.754Z,96898.84
2023-04-16T09:56:03.163Z,96898.13
2023-04-16T10:01:24.403Z,96898.81
2023-04-16T10:06:48.543Z,96896.59
2023-04-16T10:12:09.605Z,96906.16
2023-04-16T10:17:31.648Z,96899.97
2023-04-16T10:22:54.453Z,96901.50
2023-04-16T10:28:16.209Z,96896.81
2023-04-16T10:33:40.766Z,96903.56
2023-04-16T10:39:01.401Z,96904.81
2023-04-16T10:44:24.970Z,96895.13
2023-04-16T10:49:48.236Z,96904.78
2023-04-16T10:55:17.145Z,96897.28
2023-04-16T11:00:51.283Z,96900.03
2023-04-16T11:06:17.743Z,96904.50
2023-04-16T11:11:39.661Z,96901.78
2023-04-16T11:17:03.848Z,96907.81
2023-04-16T11:22:25.941Z,96906.03
2023-04-16T11:27:46.723Z,96906.81
2023-04-16T11:33:12.029Z,96909.78
2023-04-16T11:38:36.895Z,96909.63
2023-04-16T11:43:57.807Z,96907.00
2023-04-16T11:49:27.654Z,96908.25
2023-04-16T11:54:50.741Z,96920.38
2023-04-16T12:00:16.126Z,96913.75
2023-04-16T12:05:39.349Z,96918.06
2023-04-16T12:11:00.507Z,96925.09
2023-04-16T12:16:21.450Z,96925.25
2023-04-16T12:21:45.491Z,96920.63
2023-04-16T12:27:06.875Z,96916.50
2023-04-16T12:32:28.624Z,96915.91
2023-04-16T12:37:49.624Z,96916.06
2023-04-16T12:43:10.856Z,96919.66
2023-04-16T12:48:32.677Z,96919.22
2023-04-16T12:53:55.798Z,96916.19
2023-04-16T12:59:17.873Z,96915.88
2023-04-16T13:04:38.956Z,96906.91
2023-04-16T13:10:01.035Z,96900.56
2023-04-16T13:15:21.573Z,96896.16
2023-04-16T13:20:42.460Z,96908.84
2023-04-16T13:26:03.130Z,96907.00
2023-04-16T13:31:23.984Z,96903.56
2023-04-16T13:36:44.580Z,96903.47
2023-04-16T13:42:05.433Z,96900.47
2023-04-16T13:47:26.284Z,96907.28
2023-04-16T13:52:47.323Z,96899.63
2023-04-16T13:58:07.894Z,96903.84
2023-04-16T14:03:28.833Z,96901.38
2023-04-16T14:08:49.382Z,96900.25
2023-04-16T14:14:10.062Z,96898.38
2023-04-16T14:19:31.031Z,96896.88
2023-04-16T14:24:51.891Z,96893.88
2023-04-16T14:30:12.889Z,96891.44
2023-04-16T14:35:34.566Z,96889.03
2023-04-16T14:40:55.368Z,96886.28
2023-04-16T14:46:19.408Z,96883.38
2023-04-16T14:51:41.325Z,96877.56
2023-04-16T14:57:02.572Z,96894.69
2023-04-16T15:02:23.392Z,96885.44
2023-04-16T15:07:44.563Z,96889.78
2023-04-16T15:13:05.089Z,96890.03
2023-04-16T15:18:26.188Z,96894.13
2023-04-16T15:23:47.213Z,96898.75
2023-04-16T15:29:07.987Z,96898.88
2023-04-16T15:34:28.454Z,96895.97
2023-04-16T15:39:49.810Z,96910.47
2023-04-16T15:45:10.950Z,96911.47
2023-04-16T15:50:32.737Z,96911.63
2023-04-16T15:55:54.704Z,96914.75
2023-04-16T16:01:15.731Z,96914.91
2023-04-16T16:06:38.112Z,96924.69
2023-04-16T16:11:59.793Z,96917.94
2023-04-16T16:17:20.773Z,96922.53
2023-04-16T16:22:45.265Z,96924.53
2023-04-16T16:28:06.697Z,96926.91
2023-04-16T16:33:28.843Z,96930.28
2023-04-16T16:38:49.840Z,96930.59
2023-04-16T16:44:10.644Z,96937.16
2023-04-16T16:49:31.744Z,96946.47
2023-04-16T16:54:56.897Z,96951.41
2023-04-16T17:00:20.106Z,96951.03
2023-04-16T17:05:41.450Z,96958.06
2023-04-16T17:11:05.647Z,96956.75
2023-04-16T17:16:26.414Z,96960.06
2023-04-16T17:21:46.975Z,96973.72
2023-04-16T17:27:07.811Z,96979.78
2023-04-16T17:32:29.834Z,96993.53
2023-04-16T17:37:51.373Z,96999.44
2023-04-16T17:43:12.110Z,97000.84
2023-04-16T17:48:32.876Z,97004.13
2023-04-16T17:53:53.856Z,97007.59
2023-04-16T17:59:14.703Z,97030.25
2023-04-16T18:04:35.763Z,97035.28
2023-04-16T18:09:57.079Z,97039.25
2023-04-16T18:15:18.069Z,97048.34
2023-04-16T18:20:38.950Z,97053.16
2023-04-16T18:25:59.966Z,97063.25
2023-04-16T18:31:22.016Z,97062.38
2023-04-16T18:36:43.106Z,97071.31
2023-04-16T18:42:04.070Z,97076.34
2023-04-16T18:47:25.118Z,97075.06
2023-04-16T18:52:46.322Z,97090.97
2023-04-16T18:58:07.172Z,97091.78
2023-04-16T19:03:29.724Z,97090.78
2023-04-16T19:08:50.737Z,97096.34
2023-04-16T19:14:11.596Z,97097.31
2023-04-16T19:19:32.404Z,97096.75
2023-04-16T19:24:54.730Z,97102.78
2023-04-16T19:30:15.645Z,97105.22
2023-04-16T19:35:36.491Z,97115.25
2023-04-16T19:40:57.205Z,97114.25
2023-04-16T19:46:18.167Z,97110.06
2023-04-16T19:51:39.051Z,97113.13
2023-04-16T19:56:59.821Z,97115.78
2023-04-16T20:02:20.906Z,97128.06
2023-04-16T20:07:42.134Z,97133.88
2023-04-16T20:13:03.004Z,97131.63
2023-04-16T20:18:24.870Z,97132.38
2023-04-16T20:23:46.928Z,97143.50
2023-04-16T20:29:08.059Z,97142.53
2023-04-16T20:34:29.101Z,97134.13
2023-04-16T20:39:54.189Z,97142.91
2023-04-16T20:45:15.526Z,97138.91
2023-04-16T20:50:36.459Z,97136.41
2023-04-16T20:55:57.671Z,97141.25
2023-04-16T21:01:18.490Z,97146.97
2023-04-16T21:06:43.078Z,97149.91
2023-04-16T21:12:04.169Z,97147.19
2023-04-16T21:17:25.027Z,97152.63
2023-04-16T21:22:45.864Z,97148.75
2023-04-16T21:28:06.790Z,97144.00
2023-04-16T21:33:27.804Z,97150.28
2023-04-16T21:38:48.564Z,97147.56
2023-04-16T21:44:09.352Z,97152.97
2023-04-16T21:49:30.130Z,97153.09
2023-04-16T21:54:51.150Z,97152.59
2023-04-16T22:00:14.352Z,97157.81
2023-04-16T22:05:35.106Z,97152.84
2023-04-16T22:11:00.316Z,97159.19
2023-04-16T22:16:21.458Z,97149.53
2023-04-16T22:21:42.531Z,97152.59
2023-04-16T22:27:03.667Z,97152.09
2023-04-16T22:32:24.580Z,97149.88
2023-04-16T22:37:45.678Z,97148.56
2023-04-16T22:43:06.273Z,97143.00
2023-04-16T22:48:27.098Z,97151.16
2023-04-16T22:53:47.778Z,97147.56
2023-04-16T22:59:08.633Z,97139.09
2023-04-16T23:04:29.548Z,97134.72
2023-04-16T23:09:50.358Z,97135.44
2023-04-16T23:15:11.552Z,97142.72
2023-04-16T23:20:32.377Z,97132.69
2023-04-16T23:25:53.840Z,97139.53
2023-04-16T23:31:14.427Z,97129.94
2023-04-16T23:36:35.112Z,97129.78
2023-04-16T23:41:57.195Z,97131.41
2023-04-16T23:47:18.061Z,97131.34
2023-04-16T23:52:38.645Z,97127.66
2023-04-16T23:57:59.401Z,97132.38
